createdAt,value
2022-09-20T00:00:19.180Z,18.52
2022-09-20T00:02:49.788Z,18.50
2022-09-20T00:05:19.756Z,18.56
2022-09-20T00:07:50.831Z,18.65
2022-09-20T00:10:19.493Z,18.67
2022-09-20T00:12:48.179Z,18.73
2022-09-20T00:15:18.780Z,18.75
2022-09-20T00:17:47.741Z,18.75
2022-09-20T00:20:17.062Z,18.70
2022-09-20T00:22:51.242Z,18.67
2022-09-20T00:25:22.533Z,18.63
2022-09-20T00:27:53.053Z,18.62
2022-09-20T00:30:23.519Z,18.55
2022-09-20T00:32:52.133Z,18.49
2022-09-20T00:35:21.198Z,18.50
2022-09-20T00:37:52.035Z,18.46
2022-09-20T00:40:23.857Z,18.40
2022-09-20T00:42:54.439Z,18.36
2022-09-20T00:45:26.713Z,18.31
2022-09-20T00:48:01.237Z,18.27
2022-09-20T00:50:37.394Z,18.21
2022-09-20T00:53:13.459Z,18.17
2022-09-20T00:55:46.343Z,18.07
2022-09-20T00:58:16.867Z,18.04
2022-09-20T01:00:50.323Z,18.04
2022-09-20T01:03:26.592Z,17.98
2022-09-20T01:05:57.386Z,17.99
2022-09-20T01:08:27.163Z,17.83
2022-09-20T01:10:58.353Z,17.88
2022-09-20T01:13:28.247Z,18.17
2022-09-20T01:16:04.236Z,17.90
2022-09-20T01:18:38.070Z,17.91
2022-09-20T01:21:09.787Z,17.93
2022-09-20T01:23:53.275Z,17.99
2022-09-20T01:27:05.565Z,18.02
2022-09-20T01:29:59.634Z,18.02
2022-09-20T01:32:37.659Z,17.94
2022-09-20T01:35:10.064Z,17.99
2022-09-20T01:37:55.276Z,18.01
2022-09-20T01:40:39.192Z,18.08
2022-09-20T01:43:18.586Z,18.10
2022-09-20T01:45:53.056Z,18.12
2022-09-20T01:48:35.322Z,18.11
2022-09-20T01:51:56.433Z,18.01
2022-09-20T01:55:28.093Z,17.94
2022-09-20T01:58:50.507Z,17.89
2022-09-20T02:02:15.150Z,17.79
2022-09-20T02:05:36.143Z,17.71
2022-09-20T02:08:25.343Z,17.63
2022-09-20T02:11:13.965Z,17.55
2022-09-20T02:14:06.693Z,17.55
2022-09-20T02:16:54.909Z,17.49
2022-09-20T02:20:15.968Z,17.41
2022-09-20T02:23:07.225Z,17.40
2022-09-20T02:26:28.794Z,17.29
2022-09-20T02:29:15.845Z,17.27
2022-09-20T02:32:12.331Z,17.17
2022-09-20T02:35:14.010Z,17.13
2022-09-20T02:38:13.196Z,17.08
2022-09-20T02:41:14.987Z,17.07
2022-09-20T02:43:57.261Z,16.96
2022-09-20T02:46:35.710Z,16.99
2022-09-20T02:49:12.036Z,17.01
2022-09-20T02:51:52.145Z,16.91
2022-09-20T02:54:42.508Z,16.84
2022-09-20T02:57:25.852Z,16.76
2022-09-20T03:00:02.813Z,16.68
2022-09-20T03:02:44.201Z,16.63
2022-09-20T03:05:20.533Z,16.53
2022-09-20T03:08:30.990Z,16.44
2022-09-20T03:11:14.848Z,16.41
2022-09-20T03:14:04.628Z,16.33
2022-09-20T03:16:53.732Z,16.29
2022-09-20T03:19:44.302Z,16.14
2022-09-20T03:22:33.702Z,16.09
2022-09-20T03:25:29.366Z,15.99
2022-09-20T03:28:16.693Z,16.01
2022-09-20T03:31:04.942Z,15.90
2022-09-20T03:33:50.437Z,15.86
2022-09-20T03:36:40.815Z,15.83
2022-09-20T03:39:47.393Z,16.05
2022-09-20T03:42:24.544Z,16.10
2022-09-20T03:45:40.851Z,16.05
2022-09-20T03:48:55.477Z,16.04
2022-09-20T03:51:34.284Z,15.79
2022-09-20T03:54:39.399Z,15.90
2022-09-20T03:57:39.292Z,15.89
2022-09-20T04:00:33.977Z,15.87
2022-09-20T04:03:34.426Z,15.85
2022-09-20T04:06:25.040Z,15.81
2022-09-20T04:09:31.079Z,15.53
2022-09-20T04:12:10.529Z,15.49
2022-09-20T04:14:51.569Z,15.52
2022-09-20T04:17:37.269Z,15.54
2022-09-20T04:20:22.858Z,15.56
2022-09-20T04:22:59.563Z,15.48
2022-09-20T04:25:43.043Z,15.46
2022-09-20T04:28:21.177Z,15.47
2022-09-20T04:31:02.790Z,15.49
2022-09-20T04:33:39.973Z,15.53
2022-09-20T04:36:30.332Z,15.45
2022-09-20T04:39:22.513Z,15.48
2022-09-20T04:42:40.210Z,15.50
2022-09-20T04:45:57.556Z,15.43
2022-09-20T04:49:09.105Z,15.19
2022-09-20T04:52:31.723Z,15.32
2022-09-20T04:55:55.182Z,15.33
2022-09-20T04:59:08.118Z,15.29
2022-09-20T05:02:31.046Z,15.11
2022-09-20T05:05:47.273Z,15.22
2022-09-20T05:08:58.995Z,15.13
2022-09-20T05:12:13.362Z,15.07
2022-09-20T05:15:19.948Z,15.06
2022-09-20T05:18:27.220Z,15.02
2022-09-20T05:21:23.204Z,15.01
2022-09-20T05:24:24.653Z,15.07
2022-09-20T05:27:12.480Z,15.04
2022-09-20T05:30:00.258Z,15.08
2022-09-20T05:32:45.441Z,15.17
2022-09-20T05:35:25.995Z,15.09
2022-09-20T05:38:06.933Z,15.21
2022-09-20T05:41:07.804Z,15.18
2022-09-20T05:43:44.710Z,15.22
2022-09-20T05:46:28.113Z,15.38
2022-09-20T05:49:03.892Z,15.49
2022-09-20T05:52:00.609Z,15.65
2022-09-20T05:54:57.884Z,15.76
2022-09-20T05:57:45.688Z,15.66
2022-09-20T06:00:26.425Z,15.96
2022-09-20T06:03:09.924Z,15.69
2022-09-20T06:05:51.236Z,16.27
2022-09-20T06:09:04.445Z,16.29
2022-09-20T06:12:16.327Z,16.82
2022-09-20T06:15:02.307Z,16.57
2022-09-20T06:17:39.946Z,17.03
2022-09-20T06:20:22.105Z,17.21
2022-09-20T06:22:55.800Z,17.38
2022-09-20T06:25:31.579Z,17.39
2022-09-20T06:28:10.599Z,17.57
2022-09-20T06:30:47.305Z,17.60
2022-09-20T06:33:20.790Z,17.72
2022-09-20T06:35:58.909Z,17.83
2022-09-20T06:39:09.346Z,17.99
2022-09-20T06:41:43.368Z,18.01
2022-09-20T06:44:12.160Z,18.22
2022-09-20T06:46:42.552Z,18.39
2022-09-20T06:49:11.815Z,18.46
2022-09-20T06:51:43.470Z,18.52
2022-09-20T06:54:19.929Z,18.54
2022-09-20T06:56:51.551Z,18.82
2022-09-20T06:59:22.393Z,18.89
2022-09-20T07:01:52.646Z,18.69
2022-09-20T07:04:22.159Z,18.75
2022-09-20T07:06:54.502Z,18.80
2022-09-20T07:09:23.441Z,18.70
2022-09-20T07:11:53.427Z,18.21
2022-09-20T07:14:22.177Z,18.47
2022-09-20T07:16:56.950Z,18.60
2022-09-20T07:19:26.390Z,18.46
2022-09-20T07:21:58.236Z,18.38
2022-09-20T07:24:27.534Z,18.42
2022-09-20T07:26:57.968Z,18.41
2022-09-20T07:29:29.498Z,18.44
2022-09-20T07:32:00.469Z,18.70
2022-09-20T07:34:29.486Z,18.29
2022-09-20T07:36:59.663Z,18.52
2022-09-20T07:39:28.956Z,18.63
2022-09-20T07:41:58.154Z,18.27
2022-09-20T07:44:27.941Z,18.67
2022-09-20T07:47:00.753Z,19.04
2022-09-20T07:49:31.840Z,19.07
2022-09-20T07:52:09.665Z,18.76
2022-09-20T07:54:39.845Z,19.48
2022-09-20T07:57:08.692Z,19.58
2022-09-20T07:59:40.134Z,19.61
2022-09-20T08:02:15.202Z,19.23
2022-09-20T08:04:44.687Z,19.70
2022-09-20T08:07:13.829Z,19.68
2022-09-20T08:09:42.961Z,19.79
2022-09-20T08:15:11.980Z,20.42
2022-09-20T08:17:48.229Z,20.16
2022-09-20T08:20:16.905Z,20.36
2022-09-20T08:23:00.891Z,20.31
2022-09-20T08:25:35.620Z,20.34
2022-09-20T08:28:06.142Z,20.16
2022-09-20T08:30:35.116Z,20.68
2022-09-20T08:33:09.128Z,20.94
2022-09-20T08:35:41.601Z,21.01
2022-09-20T08:41:11.310Z,20.56
2022-09-20T08:43:46.035Z,20.52
2022-09-20T08:46:23.391Z,20.76
2022-09-20T08:48:55.309Z,20.99
2022-09-20T08:51:25.196Z,20.92
2022-09-20T08:53:59.726Z,20.74
2022-09-20T08:56:36.242Z,20.78
2022-09-20T08:59:07.961Z,20.35
2022-09-20T09:01:38.259Z,20.69
2022-09-20T09:04:16.396Z,20.59
2022-09-20T09:06:47.779Z,19.80
2022-09-20T09:09:22.356Z,20.24
2022-09-20T09:11:54.564Z,20.24
2022-09-20T09:14:51.091Z,21.11
2022-09-20T09:17:27.948Z,20.52
2022-09-20T09:20:02.338Z,20.95
2022-09-20T09:22:44.585Z,20.81
2022-09-20T09:25:32.613Z,20.62
2022-09-20T09:28:06.732Z,21.14
2022-09-20T09:30:39.519Z,20.97
2022-09-20T09:33:25.196Z,21.10
2022-09-20T09:36:00.713Z,21.09
2022-09-20T09:38:33.709Z,21.65
2022-09-20T09:41:08.758Z,21.57
2022-09-20T09:43:40.887Z,21.68
2022-09-20T09:46:25.973Z,22.16
2022-09-20T09:49:12.348Z,22.08
2022-09-20T09:51:45.114Z,22.05
2022-09-20T09:54:20.584Z,22.08
2022-09-20T09:57:11.097Z,22.60
2022-09-20T10:00:23.748Z,23.31
2022-09-20T10:03:48.434Z,23.78
2022-09-20T10:06:27.935Z,22.77
2022-09-20T10:09:29.402Z,22.63
2022-09-20T10:12:16.948Z,22.29
2022-09-20T10:15:04.814Z,22.36
2022-09-20T10:17:51.343Z,22.49
2022-09-20T10:20:57.647Z,22.87
2022-09-20T10:24:03.559Z,23.21
2022-09-20T10:27:01.615Z,23.70
2022-09-20T10:29:47.256Z,23.09
2022-09-20T10:32:51.057Z,22.99
2022-09-20T10:35:31.168Z,23.53
2022-09-20T10:38:19.740Z,23.44
2022-09-20T10:41:32.087Z,22.86
2022-09-20T10:44:14.713Z,23.77
2022-09-20T10:46:56.193Z,23.02
2022-09-20T10:49:36.611Z,24.00
2022-09-20T10:52:34.643Z,23.55
2022-09-20T10:55:39.464Z,24.06
2022-09-20T10:58:54.795Z,23.97
2022-09-20T11:01:35.232Z,24.34
2022-09-20T11:04:50.537Z,24.92
2022-09-20T11:07:25.547Z,24.49
2022-09-20T11:10:03.824Z,24.69
2022-09-20T11:12:44.122Z,24.52
2022-09-20T11:15:25.582Z,24.60
2022-09-20T11:18:13.183Z,24.67
2022-09-20T11:20:50.292Z,25.22
2022-09-20T11:23:25.717Z,25.46
2022-09-20T11:26:00.919Z,25.34
2022-09-20T11:28:41.179Z,25.33
2022-09-20T11:31:19.170Z,25.60
2022-09-20T11:33:56.702Z,25.91
2022-09-20T11:36:32.162Z,25.96
2022-09-20T11:39:07.282Z,26.25
2022-09-20T11:41:36.971Z,25.97
2022-09-20T11:44:13.574Z,26.25
2022-09-20T11:46:49.309Z,25.24
2022-09-20T11:49:27.681Z,25.26
2022-09-20T11:52:32.631Z,24.68
2022-09-20T11:55:44.131Z,25.06
2022-09-20T11:58:19.050Z,24.53
2022-09-20T12:01:05.281Z,25.37
2022-09-20T12:03:37.812Z,25.61
2022-09-20T12:06:33.286Z,24.84
2022-09-20T12:09:07.636Z,25.70
2022-09-20T12:11:41.240Z,25.32
2022-09-20T12:14:21.181Z,25.99
2022-09-20T12:16:51.391Z,25.37
2022-09-20T12:19:40.088Z,26.56
2022-09-20T12:22:31.402Z,26.91
2022-09-20T12:25:40.624Z,26.59
2022-09-20T12:28:18.428Z,26.52
2022-09-20T12:30:47.009Z,26.56
2022-09-20T12:33:23.147Z,26.08
2022-09-20T12:36:21.843Z,26.62
2022-09-20T12:39:21.835Z,26.27
2022-09-20T12:41:57.945Z,26.65
2022-09-20T12:44:34.368Z,26.01
2022-09-20T12:47:08.516Z,26.21
2022-09-20T12:50:12.736Z,26.57
2022-09-20T12:53:07.078Z,26.46
2022-09-20T12:55:55.457Z,26.68
2022-09-20T12:58:35.185Z,26.37
2022-09-20T13:01:32.322Z,25.96
2022-09-20T13:05:04.564Z,26.70
2022-09-20T13:07:46.850Z,26.35
2022-09-20T13:10:42.903Z,26.53
2022-09-20T13:13:42.068Z,26.33
2022-09-20T13:16:26.601Z,26.04
2022-09-20T13:19:05.301Z,25.52
2022-09-20T13:21:38.874Z,26.05
2022-09-20T13:24:16.714Z,25.79
2022-09-20T13:26:49.509Z,25.71
2022-09-20T13:29:31.661Z,25.89
2022-09-20T13:32:19.163Z,25.10
2022-09-20T13:34:48.143Z,25.05
2022-09-20T13:37:23.489Z,25.54
2022-09-20T13:40:06.577Z,26.04
2022-09-20T13:45:31.919Z,26.43
2022-09-20T13:48:23.578Z,26.91
2022-09-20T13:53:46.172Z,25.96
2022-09-20T13:56:24.752Z,26.60
2022-09-20T13:59:08.082Z,26.89
2022-09-20T14:02:12.573Z,26.77
2022-09-20T14:10:48.912Z,26.47
2022-09-20T14:13:19.840Z,26.39
2022-09-20T14:15:54.626Z,26.39
2022-09-20T14:27:17.533Z,25.63
2022-09-20T14:29:49.553Z,25.83
2022-09-20T14:32:48.212Z,26.19
2022-09-20T14:35:31.290Z,26.64
2022-09-20T14:38:16.215Z,25.71
2022-09-20T14:40:48.848Z,25.43
2022-09-20T14:43:32.334Z,25.64
2022-09-20T14:46:13.359Z,25.64
2022-09-20T14:51:41.811Z,25.90
2022-09-20T14:54:47.133Z,25.90
2022-09-20T15:00:36.995Z,26.63
2022-09-20T15:03:11.936Z,26.70
2022-09-20T15:08:51.077Z,26.74
2022-09-20T15:11:21.999Z,26.67
2022-09-20T15:13:51.616Z,26.52
2022-09-20T15:16:21.634Z,26.07
2022-09-20T15:18:50.708Z,26.39
2022-09-20T15:21:24.014Z,26.46
2022-09-20T15:23:54.784Z,26.00
2022-09-20T15:26:23.708Z,26.06
2022-09-20T15:28:53.477Z,26.27
2022-09-20T15:31:23.113Z,25.92
2022-09-20T15:33:52.568Z,25.35
2022-09-20T15:36:31.906Z,25.94
2022-09-20T15:39:04.456Z,26.09
2022-09-20T15:41:34.666Z,25.97
2022-09-20T15:44:03.647Z,25.87
2022-09-20T15:46:34.305Z,25.58
2022-09-20T15:49:06.986Z,25.40
2022-09-20T15:51:36.177Z,25.63
2022-09-20T15:54:09.717Z,25.16
2022-09-20T15:56:40.312Z,25.18
2022-09-20T15:59:11.996Z,24.81
2022-09-20T16:01:48.396Z,24.91
2022-09-20T16:04:22.409Z,24.69
2022-09-20T16:06:52.039Z,24.39
2022-09-20T16:09:22.797Z,24.17
2022-09-20T16:11:58.733Z,24.30
2022-09-20T16:14:27.931Z,23.80
2022-09-20T16:16:56.812Z,23.71
2022-09-20T16:19:28.344Z,22.36
2022-09-20T16:21:59.568Z,23.27
2022-09-20T16:24:33.193Z,23.04
2022-09-20T16:27:03.683Z,23.00
2022-09-20T16:29:33.915Z,23.07
2022-09-20T16:32:05.514Z,22.71
2022-09-20T16:34:36.150Z,22.79
2022-09-20T16:37:08.862Z,22.61
2022-09-20T16:39:42.091Z,22.20
2022-09-20T16:42:13.619Z,22.41
2022-09-20T16:44:44.056Z,22.42
2022-09-20T16:47:18.404Z,22.21
2022-09-20T16:49:47.678Z,22.22
2022-09-20T16:52:17.369Z,22.10
2022-09-20T16:54:52.459Z,21.93
2022-09-20T16:57:22.556Z,21.93
2022-09-20T16:59:54.444Z,21.76
2022-09-20T17:02:25.765Z,21.60
2022-09-20T17:05:00.343Z,21.61
2022-09-20T17:07:30.594Z,21.35
2022-09-20T17:10:01.768Z,21.37
2022-09-20T17:12:33.347Z,21.34
2022-09-20T17:15:04.569Z,21.02
2022-09-20T17:17:35.806Z,21.06
2022-09-20T17:20:08.059Z,20.97
2022-09-20T17:22:36.909Z,20.93
2022-09-20T17:25:08.907Z,20.68
2022-09-20T17:27:39.764Z,20.71
2022-09-20T17:30:12.212Z,20.44
2022-09-20T17:32:48.366Z,20.29
2022-09-20T17:35:18.526Z,20.12
2022-09-20T17:37:47.740Z,20.17
2022-09-20T17:40:29.772Z,19.97
2022-09-20T17:42:58.521Z,19.99
2022-09-20T17:45:51.735Z,19.75
2022-09-20T17:48:40.812Z,19.80
2022-09-20T17:51:34.026Z,19.59
2022-09-20T17:54:24.684Z,19.27
2022-09-20T17:57:15.963Z,19.20
2022-09-20T18:00:05.889Z,19.01
2022-09-20T18:02:54.304Z,19.28
2022-09-20T18:05:46.734Z,19.07
2022-09-20T18:08:37.049Z,19.08
2022-09-20T18:11:32.340Z,18.81
2022-09-20T18:14:41.461Z,18.89
2022-09-20T18:17:37.732Z,18.84
2022-09-20T18:20:26.110Z,18.54
2022-09-20T18:23:13.738Z,18.41
2022-09-20T18:26:04.500Z,18.45
2022-09-20T18:28:44.081Z,18.51
2022-09-20T18:31:26.014Z,18.39
2022-09-20T18:34:05.237Z,18.37
2022-09-20T18:36:42.245Z,18.32
2022-09-20T18:39:27.562Z,18.47
2022-09-20T18:42:03.941Z,18.31
2022-09-20T18:44:47.666Z,18.33
2022-09-20T18:47:30.869Z,18.35
2022-09-20T18:50:09.648Z,18.25
2022-09-20T18:52:51.808Z,18.19
2022-09-20T18:55:28.005Z,18.16
2022-09-20T18:58:02.656Z,18.23
2022-09-20T19:00:38.987Z,18.31
2022-09-20T19:03:21.977Z,18.19
2022-09-20T19:05:59.427Z,18.35
2022-09-20T19:08:44.719Z,18.24
2022-09-20T19:11:39.603Z,18.29
2022-09-20T19:17:58.583Z,18.11
2022-09-20T19:21:09.797Z,18.09
2022-09-20T19:24:03.440Z,18.32
2022-09-20T19:26:54.941Z,18.04
2022-09-20T19:29:28.020Z,18.43
2022-09-20T19:32:19.698Z,18.32
2022-09-20T19:35:07.728Z,18.10
2022-09-20T19:38:22.983Z,18.21
2022-09-20T19:41:15.875Z,18.35
2022-09-20T19:44:19.988Z,18.24
2022-09-20T19:47:06.894Z,18.22
2022-09-20T19:49:55.702Z,18.08
2022-09-20T19:52:34.445Z,18.24
2022-09-20T19:55:10.406Z,18.11
2022-09-20T19:58:02.940Z,18.01
2022-09-20T20:00:35.392Z,18.02
2022-09-20T20:03:14.862Z,18.22
2022-09-20T20:06:07.070Z,18.14
2022-09-20T20:08:46.929Z,18.21
2022-09-20T20:11:51.836Z,18.14
2022-09-20T20:14:34.581Z,17.85
2022-09-20T20:17:25.281Z,18.07
2022-09-20T20:20:37.113Z,18.22
2022-09-20T20:23:55.123Z,18.20
2022-09-20T20:26:32.340Z,18.25
2022-09-20T20:29:03.189Z,18.25
2022-09-20T20:31:37.703Z,18.31
2022-09-20T20:34:09.060Z,18.39
2022-09-20T20:36:42.944Z,18.37
2022-09-20T20:39:15.230Z,18.45
2022-09-20T20:41:52.477Z,18.16
2022-09-20T20:44:26.271Z,18.31
2022-09-20T20:46:58.769Z,18.45
2022-09-20T20:49:29.190Z,18.45
2022-09-20T20:52:08.904Z,18.59
2022-09-20T20:54:38.068Z,18.64
2022-09-20T20:57:10.694Z,18.62
2022-09-20T20:59:39.161Z,18.63
2022-09-20T21:02:08.376Z,18.63
2022-09-20T21:04:40.765Z,18.66
2022-09-20T21:07:09.533Z,18.59
2022-09-20T21:09:39.938Z,18.63
2022-09-20T21:12:10.999Z,18.53
2022-09-20T21:14:42.638Z,18.54
2022-09-20T21:17:12.968Z,18.49
2022-09-20T21:19:42.176Z,18.53
2022-09-20T21:22:17.319Z,18.36
2022-09-20T21:24:47.206Z,18.18
2022-09-20T21:27:18.293Z,18.29
2022-09-20T21:29:49.650Z,18.11
2022-09-20T21:32:18.672Z,18.19
2022-09-20T21:34:47.891Z,18.13
2022-09-20T21:37:16.937Z,18.13
2022-09-20T21:39:46.891Z,18.05
2022-09-20T21:42:27.619Z,18.01
2022-09-20T21:44:58.195Z,17.87
2022-09-20T21:47:26.774Z,17.76
2022-09-20T21:49:55.701Z,17.72
2022-09-20T21:52:26.590Z,17.62
2022-09-20T21:54:56.666Z,17.58
2022-09-20T21:57:27.510Z,17.47
2022-09-20T21:59:57.561Z,17.37
2022-09-20T22:02:27.447Z,17.25
2022-09-20T22:04:56.536Z,17.22
2022-09-20T22:07:29.446Z,17.20
2022-09-20T22:10:01.729Z,17.11
2022-09-20T22:12:31.878Z,17.02
2022-09-20T22:15:04.207Z,16.96
2022-09-20T22:17:37.282Z,17.14
2022-09-20T22:20:07.859Z,16.85
2022-09-20T22:22:37.839Z,16.79
2022-09-20T22:25:08.525Z,16.68
2022-09-20T22:27:39.694Z,16.62
2022-09-20T22:30:12.211Z,16.51
2022-09-20T22:32:43.307Z,16.46
2022-09-20T22:35:12.870Z,16.48
2022-09-20T22:37:43.160Z,16.41
2022-09-20T22:40:12.665Z,16.26
2022-09-20T22:42:42.960Z,16.08
2022-09-20T22:45:13.014Z,16.21
2022-09-20T22:47:46.620Z,16.08
2022-09-20T22:50:17.331Z,16.08
2022-09-20T22:52:46.340Z,16.03
2022-09-20T22:55:17.135Z,15.96
2022-09-20T22:57:53.016Z,16.00
2022-09-20T23:00:21.929Z,15.95
2022-09-20T23:02:51.403Z,15.99
2022-09-20T23:05:20.644Z,15.88
2022-09-20T23:07:51.709Z,15.98
2022-09-20T23:10:22.708Z,15.83
2022-09-20T23:12:54.765Z,16.02
2022-09-20T23:15:23.462Z,16.02
2022-09-20T23:17:54.583Z,15.86
2022-09-20T23:20:24.495Z,16.00
2022-09-20T23:22:54.277Z,16.08
2022-09-20T23:25:23.511Z,15.86
2022-09-20T23:27:56.526Z,16.19
2022-09-20T23:30:26.155Z,16.18
2022-09-20T23:32:58.582Z,16.18
2022-09-20T23:35:27.112Z,16.03
2022-09-20T23:37:58.061Z,16.30
2022-09-20T23:40:27.240Z,16.46
2022-09-20T23:42:59.716Z,16.48
2022-09-20T23:45:28.929Z,16.53
2022-09-20T23:48:00.483Z,16.54
2022-09-20T23:50:31.234Z,16.59
2022-09-20T23:53:02.329Z,16.37
2022-09-20T23:55:32.412Z,16.38
2022-09-20T23:58:03.370Z,16.49
